sensor_id;sensor_type;location;lat;lon;timestamp;P1;durP1;ratioP1;P2;durP2;ratioP2
30370;SDS011;17164;48.590;11.410;2023-04-25T00:00:25;3.67;;;2.63;;
30370;SDS011;17164;48.590;11.410;2023-04-25T00:02:51;4.57;;;3.20;;
30370;SDS011;17164;48.590;11.410;2023-04-25T00:05:16;5.73;;;3.27;;
30370;SDS011;17164;48.590;11.410;2023-04-25T00:07:42;6.43;;;3.50;;
30370;SDS011;17164;48.590;11.410;2023-04-25T00:10:08;6.43;;;3.03;;
30370;SDS011;17164;48.590;11.410;2023-04-25T00:12:36;6.17;;;3.03;;
30370;SDS011;17164;48.590;11.410;2023-04-25T00:15:01;5.30;;;2.43;;
30370;SDS011;17164;48.590;11.410;2023-04-25T00:17:28;4.13;;;2.90;;
30370;SDS011;17164;48.590;11.410;2023-04-25T00:19:53;4.43;;;3.00;;
30370;SDS011;17164;48.590;11.410;2023-04-25T00:22:20;5.87;;;3.10;;
30370;SDS011;17164;48.590;11.410;2023-04-25T00:24:46;6.13;;;2.67;;
30370;SDS011;17164;48.590;11.410;2023-04-25T00:27:12;4.47;;;2.57;;
30370;SDS011;17164;48.590;11.410;2023-04-25T00:29:37;4.37;;;2.80;;
30370;SDS011;17164;48.590;11.410;2023-04-25T00:32:03;3.10;;;2.17;;
30370;SDS011;17164;48.590;11.410;2023-04-25T00:34:29;6.97;;;3.03;;
30370;SDS011;17164;48.590;11.410;2023-04-25T00:36:54;3.67;;;2.13;;
30370;SDS011;17164;48.590;11.410;2023-04-25T00:39:20;5.50;;;2.17;;
30370;SDS011;17164;48.590;11.410;2023-04-25T00:41:46;2.70;;;1.90;;
30370;SDS011;17164;48.590;11.410;2023-04-25T00:44:12;3.60;;;2.27;;
30370;SDS011;17164;48.590;11.410;2023-04-25T00:46:41;3.50;;;2.40;;
30370;SDS011;17164;48.590;11.410;2023-04-25T00:49:07;4.43;;;2.40;;
30370;SDS011;17164;48.590;11.410;2023-04-25T00:51:33;3.80;;;2.50;;
30370;SDS011;17164;48.590;11.410;2023-04-25T00:53:59;3.43;;;2.30;;
30370;SDS011;17164;48.590;11.410;2023-04-25T00:56:26;3.50;;;2.53;;
30370;SDS011;17164;48.590;11.410;2023-04-25T00:58:53;5.30;;;2.33;;
30370;SDS011;17164;48.590;11.410;2023-04-25T01:01:22;3.10;;;2.10;;
30370;SDS011;17164;48.590;11.410;2023-04-25T01:03:48;4.43;;;2.43;;
30370;SDS011;17164;48.590;11.410;2023-04-25T01:06:15;2.87;;;2.13;;
30370;SDS011;17164;48.590;11.410;2023-04-25T01:08:41;3.33;;;2.37;;
30370;SDS011;17164;48.590;11.410;2023-04-25T01:11:07;4.67;;;2.30;;
30370;SDS011;17164;48.590;11.410;2023-04-25T01:13:32;3.43;;;2.30;;
30370;SDS011;17164;48.590;11.410;2023-04-25T01:15:59;4.43;;;2.50;;
30370;SDS011;17164;48.590;11.410;2023-04-25T01:18:25;6.53;;;2.33;;
30370;SDS011;17164;48.590;11.410;2023-04-25T01:20:51;3.93;;;2.40;;
30370;SDS011;17164;48.590;11.410;2023-04-25T01:23:18;3.97;;;2.10;;
30370;SDS011;17164;48.590;11.410;2023-04-25T01:25:44;5.10;;;2.20;;
30370;SDS011;17164;48.590;11.410;2023-04-25T01:28:11;3.47;;;2.17;;
30370;SDS011;17164;48.590;11.410;2023-04-25T01:30:37;3.23;;;2.20;;
30370;SDS011;17164;48.590;11.410;2023-04-25T01:33:04;4.20;;;2.50;;
30370;SDS011;17164;48.590;11.410;2023-04-25T01:35:30;4.37;;;2.57;;
30370;SDS011;17164;48.590;11.410;2023-04-25T01:37:57;4.00;;;2.40;;
30370;SDS011;17164;48.590;11.410;2023-04-25T01:40:23;2.87;;;2.20;;
30370;SDS011;17164;48.590;11.410;2023-04-25T01:42:49;2.90;;;2.10;;
30370;SDS011;17164;48.590;11.410;2023-04-25T01:45:16;4.20;;;2.37;;
30370;SDS011;17164;48.590;11.410;2023-04-25T01:47:42;3.97;;;2.57;;
30370;SDS011;17164;48.590;11.410;2023-04-25T01:50:11;2.97;;;2.17;;
30370;SDS011;17164;48.590;11.410;2023-04-25T01:52:37;3.40;;;2.10;;
30370;SDS011;17164;48.590;11.410;2023-04-25T01:55:03;5.60;;;2.80;;
30370;SDS011;17164;48.590;11.410;2023-04-25T01:57:30;5.17;;;2.77;;
30370;SDS011;17164;48.590;11.410;2023-04-25T02:00:00;4.37;;;2.50;;
30370;SDS011;17164;48.590;11.410;2023-04-25T02:02:28;3.67;;;2.43;;
30370;SDS011;17164;48.590;11.410;2023-04-25T02:04:53;3.70;;;2.70;;
30370;SDS011;17164;48.590;11.410;2023-04-25T02:07:19;4.23;;;2.60;;
30370;SDS011;17164;48.590;11.410;2023-04-25T02:09:45;4.00;;;2.80;;
30370;SDS011;17164;48.590;11.410;2023-04-25T02:12:11;5.40;;;2.73;;
30370;SDS011;17164;48.590;11.410;2023-04-25T02:14:37;5.27;;;2.33;;
30370;SDS011;17164;48.590;11.410;2023-04-25T02:17:02;4.37;;;2.60;;
30370;SDS011;17164;48.590;11.410;2023-04-25T02:19:28;5.37;;;3.00;;
30370;SDS011;17164;48.590;11.410;2023-04-25T02:21:54;4.30;;;2.77;;
30370;SDS011;17164;48.590;11.410;2023-04-25T02:24:20;4.80;;;3.30;;
30370;SDS011;17164;48.590;11.410;2023-04-25T02:26:45;5.40;;;2.80;;
30370;SDS011;17164;48.590;11.410;2023-04-25T02:29:12;6.50;;;3.40;;
30370;SDS011;17164;48.590;11.410;2023-04-25T02:31:37;7.23;;;2.77;;
30370;SDS011;17164;48.590;11.410;2023-04-25T02:34:03;4.03;;;2.67;;
30370;SDS011;17164;48.590;11.410;2023-04-25T02:36:29;4.37;;;2.77;;
30370;SDS011;17164;48.590;11.410;2023-04-25T02:38:57;5.17;;;3.13;;
30370;SDS011;17164;48.590;11.410;2023-04-25T02:41:22;4.83;;;2.80;;
30370;SDS011;17164;48.590;11.410;2023-04-25T02:43:48;4.20;;;2.63;;
30370;SDS011;17164;48.590;11.410;2023-04-25T02:46:13;6.50;;;2.77;;
30370;SDS011;17164;48.590;11.410;2023-04-25T02:48:39;4.77;;;2.60;;
30370;SDS011;17164;48.590;11.410;2023-04-25T02:51:05;4.80;;;2.50;;
30370;SDS011;17164;48.590;11.410;2023-04-25T02:53:30;4.70;;;2.37;;
30370;SDS011;17164;48.590;11.410;2023-04-25T02:55:56;4.40;;;2.80;;
30370;SDS011;17164;48.590;11.410;2023-04-25T02:58:23;4.20;;;2.30;;
30370;SDS011;17164;48.590;11.410;2023-04-25T03:00:48;6.77;;;2.90;;
30370;SDS011;17164;48.590;11.410;2023-04-25T03:03:14;6.83;;;3.10;;
30370;SDS011;17164;48.590;11.410;2023-04-25T03:05:42;6.23;;;2.83;;
30370;SDS011;17164;48.590;11.410;2023-04-25T03:08:08;5.97;;;3.50;;
30370;SDS011;17164;48.590;11.410;2023-04-25T03:10:34;5.03;;;2.80;;
30370;SDS011;17164;48.590;11.410;2023-04-25T03:12:59;6.40;;;3.23;;
30370;SDS011;17164;48.590;11.410;2023-04-25T03:15:25;4.40;;;2.77;;
30370;SDS011;17164;48.590;11.410;2023-04-25T03:17:50;6.67;;;2.80;;
30370;SDS011;17164;48.590;11.410;2023-04-25T03:20:16;4.73;;;2.67;;
30370;SDS011;17164;48.590;11.410;2023-04-25T03:22:42;4.67;;;2.67;;
30370;SDS011;17164;48.590;11.410;2023-04-25T03:25:07;6.40;;;3.07;;
30370;SDS011;17164;48.590;11.410;2023-04-25T03:27:33;4.03;;;2.90;;
30370;SDS011;17164;48.590;11.410;2023-04-25T03:29:59;4.53;;;2.90;;
30370;SDS011;17164;48.590;11.410;2023-04-25T03:32:24;5.93;;;2.97;;
30370;SDS011;17164;48.590;11.410;2023-04-25T03:34:50;4.43;;;2.83;;
30370;SDS011;17164;48.590;11.410;2023-04-25T03:37:15;6.80;;;3.07;;
30370;SDS011;17164;48.590;11.410;2023-04-25T03:39:41;4.47;;;2.93;;
30370;SDS011;17164;48.590;11.410;2023-04-25T03:42:08;7.70;;;3.60;;
30370;SDS011;17164;48.590;11.410;2023-04-25T03:44:33;5.23;;;2.97;;
30370;SDS011;17164;48.590;11.410;2023-04-25T03:46:59;5.37;;;3.43;;
30370;SDS011;17164;48.590;11.410;2023-04-25T03:49:24;6.23;;;3.50;;
30370;SDS011;17164;48.590;11.410;2023-04-25T03:51:50;6.07;;;3.30;;
30370;SDS011;17164;48.590;11.410;2023-04-25T03:54:16;5.80;;;3.37;;
30370;SDS011;17164;48.590;11.410;2023-04-25T03:56:41;4.83;;;3.03;;
30370;SDS011;17164;48.590;11.410;2023-04-25T03:59:07;7.50;;;3.33;;
30370;SDS011;17164;48.590;11.410;2023-04-25T04:01:33;5.67;;;3.33;;
30370;SDS011;17164;48.590;11.410;2023-04-25T04:03:59;5.47;;;3.20;;
30370;SDS011;17164;48.590;11.410;2023-04-25T04:06:24;6.33;;;3.13;;
30370;SDS011;17164;48.590;11.410;2023-04-25T04:08:50;4.90;;;3.23;;
30370;SDS011;17164;48.590;11.410;2023-04-25T04:11:16;5.13;;;3.20;;
30370;SDS011;17164;48.590;11.410;2023-04-25T04:13:41;6.93;;;3.60;;
30370;SDS011;17164;48.590;11.410;2023-04-25T04:16:07;4.83;;;3.23;;
30370;SDS011;17164;48.590;11.410;2023-04-25T04:18:33;7.17;;;3.70;;
30370;SDS011;17164;48.590;11.410;2023-04-25T04:20:59;5.37;;;3.47;;
30370;SDS011;17164;48.590;11.410;2023-04-25T04:23:24;6.93;;;3.20;;
30370;SDS011;17164;48.590;11.410;2023-04-25T04:25:52;5.73;;;2.83;;
30370;SDS011;17164;48.590;11.410;2023-04-25T04:28:19;6.47;;;3.73;;
30370;SDS011;17164;48.590;11.410;2023-04-25T04:30:45;5.57;;;3.27;;
30370;SDS011;17164;48.590;11.410;2023-04-25T04:33:11;5.47;;;3.70;;
30370;SDS011;17164;48.590;11.410;2023-04-25T04:35:37;6.83;;;3.33;;
30370;SDS011;17164;48.590;11.410;2023-04-25T04:38:02;6.47;;;3.77;;
30370;SDS011;17164;48.590;11.410;2023-04-25T04:40:28;4.97;;;3.57;;
30370;SDS011;17164;48.590;11.410;2023-04-25T04:42:56;5.83;;;3.50;;
30370;SDS011;17164;48.590;11.410;2023-04-25T04:45:22;6.10;;;3.93;;
30370;SDS011;17164;48.590;11.410;2023-04-25T04:47:48;7.53;;;3.73;;
30370;SDS011;17164;48.590;11.410;2023-04-25T04:50:15;5.60;;;3.50;;
30370;SDS011;17164;48.590;11.410;2023-04-25T04:52:41;5.77;;;3.93;;
30370;SDS011;17164;48.590;11.410;2023-04-25T04:55:07;9.63;;;4.67;;
30370;SDS011;17164;48.590;11.410;2023-04-25T04:57:33;7.33;;;3.70;;
30370;SDS011;17164;48.590;11.410;2023-04-25T04:59:59;6.60;;;4.00;;
30370;SDS011;17164;48.590;11.410;2023-04-25T05:02:25;5.47;;;3.83;;
30370;SDS011;17164;48.590;11.410;2023-04-25T05:04:51;7.27;;;4.20;;
30370;SDS011;17164;48.590;11.410;2023-04-25T05:07:17;7.43;;;4.10;;
30370;SDS011;17164;48.590;11.410;2023-04-25T05:09:44;5.63;;;4.07;;
30370;SDS011;17164;48.590;11.410;2023-04-25T05:12:10;8.37;;;4.43;;
30370;SDS011;17164;48.590;11.410;2023-04-25T05:14:35;6.63;;;3.67;;
30370;SDS011;17164;48.590;11.410;2023-04-25T05:17:01;9.80;;;4.10;;
30370;SDS011;17164;48.590;11.410;2023-04-25T05:19:29;7.57;;;3.90;;
30370;SDS011;17164;48.590;11.410;2023-04-25T05:21:55;7.17;;;3.37;;
30370;SDS011;17164;48.590;11.410;2023-04-25T05:24:21;5.77;;;3.50;;
30370;SDS011;17164;48.590;11.410;2023-04-25T05:26:46;5.60;;;3.23;;
30370;SDS011;17164;48.590;11.410;2023-04-25T05:29:12;5.50;;;3.30;;
30370;SDS011;17164;48.590;11.410;2023-04-25T05:31:37;5.50;;;3.00;;
30370;SDS011;17164;48.590;11.410;2023-04-25T05:34:03;5.73;;;2.97;;
30370;SDS011;17164;48.590;11.410;2023-04-25T05:36:28;9.73;;;3.63;;
30370;SDS011;17164;48.590;11.410;2023-04-25T05:38:56;6.67;;;3.13;;
30370;SDS011;17164;48.590;11.410;2023-04-25T05:41:21;6.70;;;3.57;;
30370;SDS011;17164;48.590;11.410;2023-04-25T05:43:47;9.47;;;4.03;;
30370;SDS011;17164;48.590;11.410;2023-04-25T05:46:14;5.50;;;3.50;;
30370;SDS011;17164;48.590;11.410;2023-04-25T05:48:42;6.63;;;3.67;;
30370;SDS011;17164;48.590;11.410;2023-04-25T05:51:08;5.70;;;3.47;;
30370;SDS011;17164;48.590;11.410;2023-04-25T05:53:34;8.70;;;3.27;;
30370;SDS011;17164;48.590;11.410;2023-04-25T05:55:59;4.53;;;3.30;;
30370;SDS011;17164;48.590;11.410;2023-04-25T05:58:26;5.27;;;3.40;;
30370;SDS011;17164;48.590;11.410;2023-04-25T06:00:51;5.43;;;3.03;;
30370;SDS011;17164;48.590;11.410;2023-04-25T06:03:17;5.87;;;3.07;;
30370;SDS011;17164;48.590;11.410;2023-04-25T06:05:42;6.23;;;3.13;;
30370;SDS011;17164;48.590;11.410;2023-04-25T06:08:08;5.30;;;3.43;;
30370;SDS011;17164;48.590;11.410;2023-04-25T06:10:35;6.57;;;3.80;;
30370;SDS011;17164;48.590;11.410;2023-04-25T06:13:01;5.37;;;3.27;;
30370;SDS011;17164;48.590;11.410;2023-04-25T06:15:27;5.10;;;3.77;;
30370;SDS011;17164;48.590;11.410;2023-04-25T06:17:53;6.77;;;3.10;;
30370;SDS011;17164;48.590;11.410;2023-04-25T06:20:18;5.23;;;3.33;;
30370;SDS011;17164;48.590;11.410;2023-04-25T06:22:48;4.50;;;3.00;;
30370;SDS011;17164;48.590;11.410;2023-04-25T06:25:14;7.00;;;2.93;;
30370;SDS011;17164;48.590;11.410;2023-04-25T06:27:40;7.77;;;2.63;;
30370;SDS011;17164;48.590;11.410;2023-04-25T06:30:05;6.00;;;2.90;;
30370;SDS011;17164;48.590;11.410;2023-04-25T06:32:32;6.70;;;2.83;;
30370;SDS011;17164;48.590;11.410;2023-04-25T06:34:59;6.73;;;3.20;;
30370;SDS011;17164;48.590;11.410;2023-04-25T06:37:25;6.67;;;2.77;;
30370;SDS011;17164;48.590;11.410;2023-04-25T06:39:50;2.83;;;2.17;;
30370;SDS011;17164;48.590;11.410;2023-04-25T06:42:16;8.40;;;2.67;;
30370;SDS011;17164;48.590;11.410;2023-04-25T06:44:41;4.53;;;2.13;;
30370;SDS011;17164;48.590;11.410;2023-04-25T06:47:07;5.07;;;2.63;;
30370;SDS011;17164;48.590;11.410;2023-04-25T06:49:33;5.77;;;2.30;;
30370;SDS011;17164;48.590;11.410;2023-04-25T06:51:58;6.83;;;2.90;;
30370;SDS011;17164;48.590;11.410;2023-04-25T06:54:24;5.50;;;2.77;;
30370;SDS011;17164;48.590;11.410;2023-04-25T06:56:52;7.90;;;2.93;;
30370;SDS011;17164;48.590;11.410;2023-04-25T06:59:18;9.67;;;2.60;;
30370;SDS011;17164;48.590;11.410;2023-04-25T07:01:43;6.90;;;2.97;;
30370;SDS011;17164;48.590;11.410;2023-04-25T07:04:09;6.37;;;2.83;;
30370;SDS011;17164;48.590;11.410;2023-04-25T07:06:35;5.40;;;2.73;;
30370;SDS011;17164;48.590;11.410;2023-04-25T07:09:03;8.07;;;2.50;;
30370;SDS011;17164;48.590;11.410;2023-04-25T07:11:29;10.33;;;2.90;;
30370;SDS011;17164;48.590;11.410;2023-04-25T07:13:55;5.87;;;2.40;;
30370;SDS011;17164;48.590;11.410;2023-04-25T07:16:20;4.73;;;2.23;;
30370;SDS011;17164;48.590;11.410;2023-04-25T07:18:46;5.00;;;2.00;;
30370;SDS011;17164;48.590;11.410;2023-04-25T07:21:11;11.40;;;2.70;;
30370;SDS011;17164;48.590;11.410;2023-04-25T07:23:37;5.03;;;2.60;;
30370;SDS011;17164;48.590;11.410;2023-04-25T07:26:05;7.47;;;2.60;;
30370;SDS011;17164;48.590;11.410;2023-04-25T07:28:31;4.00;;;2.10;;
30370;SDS011;17164;48.590;11.410;2023-04-25T07:30:57;4.07;;;2.20;;
30370;SDS011;17164;48.590;11.410;2023-04-25T07:33:23;2.87;;;2.10;;
30370;SDS011;17164;48.590;11.410;2023-04-25T07:35:48;3.60;;;1.90;;
30370;SDS011;17164;48.590;11.410;2023-04-25T07:38:15;3.63;;;2.13;;
30370;SDS011;17164;48.590;11.410;2023-04-25T07:40:40;5.30;;;2.43;;
30370;SDS011;17164;48.590;11.410;2023-04-25T07:43:06;3.03;;;1.93;;
30370;SDS011;17164;48.590;11.410;2023-04-25T07:45:32;3.97;;;1.83;;
30370;SDS011;17164;48.590;11.410;2023-04-25T07:47:57;3.73;;;2.10;;
30370;SDS011;17164;48.590;11.410;2023-04-25T07:50:23;4.10;;;2.37;;
30370;SDS011;17164;48.590;11.410;2023-04-25T07:52:49;4.07;;;1.73;;
30370;SDS011;17164;48.590;11.410;2023-04-25T07:55:14;1.60;;;1.37;;
30370;SDS011;17164;48.590;11.410;2023-04-25T07:57:40;3.60;;;1.73;;
30370;SDS011;17164;48.590;11.410;2023-04-25T08:00:06;5.67;;;2.00;;
30370;SDS011;17164;48.590;11.410;2023-04-25T08:02:35;3.03;;;1.70;;
30370;SDS011;17164;48.590;11.410;2023-04-25T08:05:01;4.83;;;2.20;;
30370;SDS011;17164;48.590;11.410;2023-04-25T08:07:27;3.17;;;1.77;;
30370;SDS011;17164;48.590;11.410;2023-04-25T08:09:53;4.23;;;1.90;;
30370;SDS011;17164;48.590;11.410;2023-04-25T08:12:19;2.70;;;1.90;;
30370;SDS011;17164;48.590;11.410;2023-04-25T08:14:45;2.70;;;1.60;;
30370;SDS011;17164;48.590;11.410;2023-04-25T08:17:10;5.13;;;1.83;;
30370;SDS011;17164;48.590;11.410;2023-04-25T08:19:36;5.73;;;1.70;;
30370;SDS011;17164;48.590;11.410;2023-04-25T08:22:02;2.53;;;1.60;;
30370;SDS011;17164;48.590;11.410;2023-04-25T08:24:28;4.90;;;2.27;;
30370;SDS011;17164;48.590;11.410;2023-04-25T08:26:53;4.90;;;1.73;;
30370;SDS011;17164;48.590;11.410;2023-04-25T08:29:19;5.63;;;2.00;;
30370;SDS011;17164;48.590;11.410;2023-04-25T08:31:45;4.57;;;2.17;;
30370;SDS011;17164;48.590;11.410;2023-04-25T08:34:10;6.27;;;2.63;;
30370;SDS011;17164;48.590;11.410;2023-04-25T08:36:36;3.70;;;1.60;;
30370;SDS011;17164;48.590;11.410;2023-04-25T08:39:02;4.60;;;2.10;;
30370;SDS011;17164;48.590;11.410;2023-04-25T08:41:28;6.40;;;2.20;;
30370;SDS011;17164;48.590;11.410;2023-04-25T08:43:54;4.77;;;2.43;;
30370;SDS011;17164;48.590;11.410;2023-04-25T08:46:21;6.77;;;2.20;;
30370;SDS011;17164;48.590;11.410;2023-04-25T08:48:48;6.60;;;2.50;;
30370;SDS011;17164;48.590;11.410;2023-04-25T08:51:22;4.10;;;1.97;;
30370;SDS011;17164;48.590;11.410;2023-04-25T08:53:52;4.40;;;2.13;;
30370;SDS011;17164;48.590;11.410;2023-04-25T08:56:19;3.43;;;1.87;;
30370;SDS011;17164;48.590;11.410;2023-04-25T08:58:50;3.73;;;2.07;;
30370;SDS011;17164;48.590;11.410;2023-04-25T09:01:16;4.27;;;2.00;;
30370;SDS011;17164;48.590;11.410;2023-04-25T09:03:43;3.77;;;1.80;;
30370;SDS011;17164;48.590;11.410;2023-04-25T09:06:10;3.50;;;2.13;;
30370;SDS011;17164;48.590;11.410;2023-04-25T09:08:36;3.17;;;1.93;;
30370;SDS011;17164;48.590;11.410;2023-04-25T09:11:02;2.23;;;1.63;;
30370;SDS011;17164;48.590;11.410;2023-04-25T09:13:28;4.60;;;2.00;;
30370;SDS011;17164;48.590;11.410;2023-04-25T09:15:55;3.23;;;1.80;;
30370;SDS011;17164;48.590;11.410;2023-04-25T09:18:31;3.23;;;2.03;;
30370;SDS011;17164;48.590;11.410;2023-04-25T09:21:05;5.43;;;2.50;;
30370;SDS011;17164;48.590;11.410;2023-04-25T09:23:38;4.13;;;1.90;;
30370;SDS011;17164;48.590;11.410;2023-04-25T09:26:09;4.33;;;1.90;;
30370;SDS011;17164;48.590;11.410;2023-04-25T09:28:38;4.10;;;2.00;;
30370;SDS011;17164;48.590;11.410;2023-04-25T09:31:04;5.10;;;2.23;;
30370;SDS011;17164;48.590;11.410;2023-04-25T09:33:31;5.70;;;2.17;;
30370;SDS011;17164;48.590;11.410;2023-04-25T09:36:07;5.20;;;2.13;;
30370;SDS011;17164;48.590;11.410;2023-04-25T09:38:44;2.60;;;1.67;;
30370;SDS011;17164;48.590;11.410;2023-04-25T09:41:11;3.97;;;2.10;;
30370;SDS011;17164;48.590;11.410;2023-04-25T09:43:37;4.70;;;1.90;;
30370;SDS011;17164;48.590;11.410;2023-04-25T09:46:07;2.37;;;1.67;;
30370;SDS011;17164;48.590;11.410;2023-04-25T09:48:36;2.93;;;1.53;;
30370;SDS011;17164;48.590;11.410;2023-04-25T09:53:28;2.67;;;1.90;;
30370;SDS011;17164;48.590;11.410;2023-04-25T09:55:55;5.00;;;2.20;;
30370;SDS011;17164;48.590;11.410;2023-04-25T09:58:21;4.30;;;2.03;;
30370;SDS011;17164;48.590;11.410;2023-04-25T10:00:49;2.47;;;1.63;;
30370;SDS011;17164;48.590;11.410;2023-04-25T10:03:16;4.07;;;2.00;;
30370;SDS011;17164;48.590;11.410;2023-04-25T10:05:43;4.90;;;1.80;;
30370;SDS011;17164;48.590;11.410;2023-04-25T10:08:09;3.53;;;1.90;;
30370;SDS011;17164;48.590;11.410;2023-04-25T10:10:37;8.50;;;2.07;;
30370;SDS011;17164;48.590;11.410;2023-04-25T10:13:05;3.37;;;1.70;;
30370;SDS011;17164;48.590;11.410;2023-04-25T10:15:34;2.83;;;1.80;;
30370;SDS011;17164;48.590;11.410;2023-04-25T10:18:03;3.20;;;1.67;;
30370;SDS011;17164;48.590;11.410;2023-04-25T10:20:31;1.93;;;1.50;;
30370;SDS011;17164;48.590;11.410;2023-04-25T10:22:58;2.30;;;1.40;;
30370;SDS011;17164;48.590;11.410;2023-04-25T10:25:33;2.10;;;1.53;;
30370;SDS011;17164;48.590;11.410;2023-04-25T10:28:00;2.07;;;1.70;;
30370;SDS011;17164;48.590;11.410;2023-04-25T10:30:27;2.17;;;1.47;;
30370;SDS011;17164;48.590;11.410;2023-04-25T10:32:52;2.20;;;1.63;;
30370;SDS011;17164;48.590;11.410;2023-04-25T10:35:27;1.50;;;1.40;;
30370;SDS011;17164;48.590;11.410;2023-04-25T10:38:05;2.03;;;1.40;;
30370;SDS011;17164;48.590;11.410;2023-04-25T10:40:35;3.37;;;1.50;;
30370;SDS011;17164;48.590;11.410;2023-04-25T10:49:00;1.80;;;1.10;;
30370;SDS011;17164;48.590;11.410;2023-04-25T10:54:04;0.97;;;0.90;;
30370;SDS011;17164;48.590;11.410;2023-04-25T10:56:37;0.67;;;0.67;;
30370;SDS011;17164;48.590;11.410;2023-04-25T11:09:47;3.03;;;1.20;;
30370;SDS011;17164;48.590;11.410;2023-04-25T11:12:13;1.20;;;1.10;;
30370;SDS011;17164;48.590;11.410;2023-04-25T11:14:40;6.13;;;1.10;;
30370;SDS011;17164;48.590;11.410;2023-04-25T11:17:05;1.20;;;0.90;;
30370;SDS011;17164;48.590;11.410;2023-04-25T11:19:31;2.30;;;1.40;;
30370;SDS011;17164;48.590;11.410;2023-04-25T11:21:57;1.40;;;1.20;;
30370;SDS011;17164;48.590;11.410;2023-04-25T11:24:28;1.30;;;0.90;;
30370;SDS011;17164;48.590;11.410;2023-04-25T11:26:54;1.37;;;0.97;;
30370;SDS011;17164;48.590;11.410;2023-04-25T11:29:23;1.13;;;1.00;;
30370;SDS011;17164;48.590;11.410;2023-04-25T11:31:52;0.87;;;0.70;;
30370;SDS011;17164;48.590;11.410;2023-04-25T11:34:21;0.93;;;0.80;;
30370;SDS011;17164;48.590;11.410;2023-04-25T11:36:47;4.30;;;1.00;;
30370;SDS011;17164;48.590;11.410;2023-04-25T11:39:13;1.00;;;0.90;;
30370;SDS011;17164;48.590;11.410;2023-04-25T11:41:40;1.17;;;0.90;;
30370;SDS011;17164;48.590;11.410;2023-04-25T11:44:07;3.57;;;0.97;;
30370;SDS011;17164;48.590;11.410;2023-04-25T11:46:33;1.43;;;1.00;;
30370;SDS011;17164;48.590;11.410;2023-04-25T11:49:00;1.17;;;0.80;;
30370;SDS011;17164;48.590;11.410;2023-04-25T11:51:25;1.20;;;0.80;;
30370;SDS011;17164;48.590;11.410;2023-04-25T11:53:52;4.60;;;0.90;;
30370;SDS011;17164;48.590;11.410;2023-04-25T11:56:17;1.00;;;0.77;;
30370;SDS011;17164;48.590;11.410;2023-04-25T12:01:34;1.70;;;1.03;;
30370;SDS011;17164;48.590;11.410;2023-04-25T12:04:11;0.97;;;0.80;;
30370;SDS011;17164;48.590;11.410;2023-04-25T12:06:37;1.70;;;1.00;;
30370;SDS011;17164;48.590;11.410;2023-04-25T12:09:10;1.30;;;0.90;;
30370;SDS011;17164;48.590;11.410;2023-04-25T12:11:44;3.33;;;1.20;;
30370;SDS011;17164;48.590;11.410;2023-04-25T12:14:24;1.90;;;1.40;;
30370;SDS011;17164;48.590;11.410;2023-04-25T12:16:52;2.73;;;1.50;;
30370;SDS011;17164;48.590;11.410;2023-04-25T12:19:20;3.43;;;1.40;;
30370;SDS011;17164;48.590;11.410;2023-04-25T12:21:46;1.90;;;1.50;;
30370;SDS011;17164;48.590;11.410;2023-04-25T12:24:14;2.83;;;1.40;;
30370;SDS011;17164;48.590;11.410;2023-04-25T12:26:49;2.13;;;1.57;;
30370;SDS011;17164;48.590;11.410;2023-04-25T12:29:30;2.07;;;1.23;;
30370;SDS011;17164;48.590;11.410;2023-04-25T12:31:56;2.40;;;1.57;;
30370;SDS011;17164;48.590;11.410;2023-04-25T12:34:23;2.80;;;1.60;;
30370;SDS011;17164;48.590;11.410;2023-04-25T12:36:49;2.50;;;1.47;;
30370;SDS011;17164;48.590;11.410;2023-04-25T12:39:16;2.00;;;1.57;;
30370;SDS011;17164;48.590;11.410;2023-04-25T12:41:44;2.27;;;1.57;;
30370;SDS011;17164;48.590;11.410;2023-04-25T12:44:10;3.23;;;1.60;;
30370;SDS011;17164;48.590;11.410;2023-04-25T12:46:36;3.57;;;1.60;;
30370;SDS011;17164;48.590;11.410;2023-04-25T12:49:03;2.00;;;1.80;;
30370;SDS011;17164;48.590;11.410;2023-04-25T12:51:29;2.60;;;1.87;;
30370;SDS011;17164;48.590;11.410;2023-04-25T12:53:55;2.23;;;1.73;;
30370;SDS011;17164;48.590;11.410;2023-04-25T12:56:21;2.33;;;1.73;;
30370;SDS011;17164;48.590;11.410;2023-04-25T12:58:46;2.10;;;1.70;;
30370;SDS011;17164;48.590;11.410;2023-04-25T13:01:13;3.03;;;1.87;;
30370;SDS011;17164;48.590;11.410;2023-04-25T13:03:39;2.90;;;1.67;;
30370;SDS011;17164;48.590;11.410;2023-04-25T13:06:06;3.33;;;2.13;;
30370;SDS011;17164;48.590;11.410;2023-04-25T13:08:32;2.73;;;1.93;;
30370;SDS011;17164;48.590;11.410;2023-04-25T13:10:58;2.33;;;2.03;;
30370;SDS011;17164;48.590;11.410;2023-04-25T13:13:23;3.07;;;2.20;;
30370;SDS011;17164;48.590;11.410;2023-04-25T13:15:49;3.03;;;1.93;;
30370;SDS011;17164;48.590;11.410;2023-04-25T13:18:15;2.87;;;1.93;;
30370;SDS011;17164;48.590;11.410;2023-04-25T13:20:40;3.87;;;2.00;;
30370;SDS011;17164;48.590;11.410;2023-04-25T13:23:06;3.37;;;2.00;;
30370;SDS011;17164;48.590;11.410;2023-04-25T13:25:32;3.87;;;2.03;;
30370;SDS011;17164;48.590;11.410;2023-04-25T13:27:57;3.43;;;2.60;;
30370;SDS011;17164;48.590;11.410;2023-04-25T13:30:23;3.33;;;2.37;;
30370;SDS011;17164;48.590;11.410;2023-04-25T13:32:49;3.60;;;2.63;;
30370;SDS011;17164;48.590;11.410;2023-04-25T13:35:16;4.07;;;2.57;;
30370;SDS011;17164;48.590;11.410;2023-04-25T13:37:42;2.63;;;2.27;;
30370;SDS011;17164;48.590;11.410;2023-04-25T13:40:09;3.30;;;2.57;;
30370;SDS011;17164;48.590;11.410;2023-04-25T13:42:38;3.27;;;2.57;;
30370;SDS011;17164;48.590;11.410;2023-04-25T13:45:05;3.37;;;2.23;;
30370;SDS011;17164;48.590;11.410;2023-04-25T13:47:32;3.63;;;1.90;;
30370;SDS011;17164;48.590;11.410;2023-04-25T13:49:57;3.43;;;2.50;;
30370;SDS011;17164;48.590;11.410;2023-04-25T13:52:23;2.70;;;2.10;;
30370;SDS011;17164;48.590;11.410;2023-04-25T13:54:52;2.57;;;2.00;;
30370;SDS011;17164;48.590;11.410;2023-04-25T13:57:17;2.90;;;1.90;;
30370;SDS011;17164;48.590;11.410;2023-04-25T13:59:43;3.13;;;1.90;;
30370;SDS011;17164;48.590;11.410;2023-04-25T14:02:09;2.97;;;2.00;;
30370;SDS011;17164;48.590;11.410;2023-04-25T14:04:34;2.70;;;2.27;;
30370;SDS011;17164;48.590;11.410;2023-04-25T14:07:00;2.43;;;1.83;;
30370;SDS011;17164;48.590;11.410;2023-04-25T14:09:27;3.53;;;2.30;;
30370;SDS011;17164;48.590;11.410;2023-04-25T14:11:52;2.70;;;2.17;;
30370;SDS011;17164;48.590;11.410;2023-04-25T14:14:19;2.20;;;2.00;;
30370;SDS011;17164;48.590;11.410;2023-04-25T14:16:46;3.30;;;2.10;;
30370;SDS011;17164;48.590;11.410;2023-04-25T14:19:15;3.07;;;2.20;;
30370;SDS011;17164;48.590;11.410;2023-04-25T14:21:41;6.13;;;2.70;;
30370;SDS011;17164;48.590;11.410;2023-04-25T14:24:10;5.10;;;2.50;;
30370;SDS011;17164;48.590;11.410;2023-04-25T14:26:36;5.93;;;2.80;;
30370;SDS011;17164;48.590;11.410;2023-04-25T14:29:02;5.70;;;3.20;;
30370;SDS011;17164;48.590;11.410;2023-04-25T14:31:30;4.00;;;2.30;;
30370;SDS011;17164;48.590;11.410;2023-04-25T14:33:56;4.33;;;3.00;;
30370;SDS011;17164;48.590;11.410;2023-04-25T14:36:21;6.43;;;2.87;;
30370;SDS011;17164;48.590;11.410;2023-04-25T14:38:47;4.70;;;3.00;;
30370;SDS011;17164;48.590;11.410;2023-04-25T14:41:13;7.17;;;3.50;;
30370;SDS011;17164;48.590;11.410;2023-04-25T14:43:38;5.23;;;3.30;;
30370;SDS011;17164;48.590;11.410;2023-04-25T14:46:05;3.83;;;2.97;;
30370;SDS011;17164;48.590;11.410;2023-04-25T14:48:31;6.53;;;2.80;;
30370;SDS011;17164;48.590;11.410;2023-04-25T14:50:57;3.77;;;2.27;;
30370;SDS011;17164;48.590;11.410;2023-04-25T14:53:23;3.20;;;2.17;;